Time;durP1;ratioP1;P1;durP2;ratioP2;P2;SDS_P1;SDS_P2;PMS_P1;PMS_P2;Temp;Humidity;BMP_temperature;BMP_pressure;BME280_temperature;BME280_humidity;BME280_pressure;Samples;Min_cycle;Max_cycle;Signal;HPM_P1;HPM_P2
2022/06/28 07:45:01;;;;;;;1.23;0.30;;;24.90;83.90;;;;;;4894957;23;20297;-75
2022/06/28 07:47:28;;;;;;;0.93;0.40;;;26.00;84.40;;;;;;4898558;29;20224;-67
2022/06/28 07:52:39;;;;;;;0.93;0.30;;;25.80;82.60;;;;;;4898576;29;20208;-65
2022/06/28 07:55:08;;;;;;;0.30;0.20;;;25.40;82.40;;;;;;4898673;29;20210;-64
2022/06/28 07:57:35;;;;;;;0.82;0.30;;;25.30;81.40;;;;;;4879412;29;20310;-68
2022/06/28 08:00:05;;;;;;;0.32;0.30;;;25.40;76.60;;;;;;4880091;29;20319;-65
2022/06/28 08:02:32;;;;;;;0.43;0.20;;;26.30;78.30;;;;;;4887403;29;20321;-65
2022/06/28 08:04:59;;;;;;;0.80;0.25;;;26.10;81.20;;;;;;4898466;29;20563;-65
2022/06/28 08:07:25;;;;;;;0.50;0.25;;;25.80;79.70;;;;;;4898364;29;20246;-65
2022/06/28 08:09:52;;;;;;;1.17;0.30;;;26.60;79.90;;;;;;4898457;29;20234;-65
2022/06/28 08:12:19;;;;;;;1.70;0.30;;;27.50;79.40;;;;;;4898789;29;20690;-65
2022/06/28 08:14:46;;;;;;;0.82;0.43;;;28.50;76.40;;;;;;4898449;29;20638;-65
2022/06/28 08:17:14;;;;;;;1.73;0.60;;;29.10;77.90;;;;;;4898593;29;20210;-65
2022/06/28 08:19:42;;;;;;;1.33;0.40;;;28.60;77.20;;;;;;4898875;29;20237;-66
2022/06/28 08:22:09;;;;;;;0.80;0.32;;;28.80;77.20;;;;;;4899143;29;20661;-69
2022/06/28 08:24:36;;;;;;;1.50;0.50;;;28.60;78.10;;;;;;4898877;29;20220;-65
2022/06/28 08:27:03;;;;;;;0.40;0.20;;;28.50;80.10;;;;;;4898807;29;20388;-65
2022/06/28 08:29:31;;;;;;;0.70;0.32;;;28.00;80.90;;;;;;4898270;29;20331;-70
2022/06/28 08:31:58;;;;;;;2.75;0.57;;;27.80;79.80;;;;;;4898682;29;20215;-71
2022/06/28 08:34:27;;;;;;;1.30;0.60;;;27.40;79.50;;;;;;4898334;29;20569;-67
2022/06/28 08:36:53;;;;;;;2.17;0.40;;;28.10;81.40;;;;;;4898575;29;20206;-75
2022/06/28 08:39:20;;;;;;;1.15;0.38;;;27.70;79.90;;;;;;4898321;29;20217;-66
2022/06/28 08:41:48;;;;;;;0.60;0.30;;;27.60;80.90;;;;;;4897576;29;20325;-65
2022/06/28 08:44:17;;;;;;;1.05;0.30;;;27.80;81.70;;;;;;4898224;29;20248;-65
2022/06/28 08:46:46;;;;;;;1.90;0.40;;;27.50;79.60;;;;;;4897961;29;20360;-67
2022/06/28 08:49:15;;;;;;;0.98;0.40;;;27.90;80.80;;;;;;4898142;29;20232;-65
2022/06/28 08:51:44;;;;;;;1.85;0.30;;;27.80;81.30;;;;;;4898137;29;20569;-66
2022/06/28 08:54:13;;;;;;;0.88;0.35;;;27.80;79.90;;;;;;4898720;29;20214;-69
2022/06/28 08:56:41;;;;;;;1.25;0.30;;;27.70;81.20;;;;;;4898121;29;20217;-68
2022/06/28 08:59:08;;;;;;;0.25;0.20;;;28.00;80.20;;;;;;4898175;29;20309;-65
2022/06/28 09:01:35;;;;;;;0.70;0.30;;;27.80;82.30;;;;;;4897847;29;20241;-66
2022/06/28 09:04:03;;;;;;;0.77;0.40;;;27.80;80.40;;;;;;4898289;29;20202;-69
2022/06/28 09:06:30;;;;;;;1.00;0.30;;;27.60;81.40;;;;;;4898350;29;20233;-66
2022/06/28 09:08:58;;;;;;;2.88;0.50;;;28.10;79.90;;;;;;4898133;29;20313;-66
2022/06/28 09:11:25;;;;;;;1.20;0.50;;;28.70;80.30;;;;;;4897817;29;20709;-69
2022/06/28 09:13:52;;;;;;;1.67;0.45;;;28.50;80.90;;;;;;4897731;29;20584;-71
2022/06/28 09:16:20;;;;;;;1.73;0.40;;;28.40;79.60;;;;;;4897778;29;20573;-66
2022/06/28 09:18:48;;;;;;;1.23;0.30;;;29.00;80.60;;;;;;4898024;29;20210;-69
2022/06/28 09:21:17;;;;;;;2.85;0.40;;;29.10;78.40;;;;;;4897841;29;20701;-65
2022/06/28 09:23:46;;;;;;;0.90;0.38;;;29.30;78.90;;;;;;4897656;29;20230;-65
2022/06/28 09:26:16;;;;;;;1.73;0.45;;;29.20;80.50;;;;;;4897594;29;20299;-65
2022/06/28 09:28:45;;;;;;;1.85;0.30;;;28.70;78.40;;;;;;4897582;29;20211;-65
2022/06/28 09:31:20;;;;;;;1.70;0.45;;;28.60;81.70;;;;;;4897865;29;20227;-65
2022/06/28 09:33:49;;;;;;;1.35;0.30;;;28.40;79.60;;;;;;4897641;29;20210;-67
2022/06/28 09:36:17;;;;;;;1.60;0.77;;;28.20;79.50;;;;;;4897674;29;20301;-65
2022/06/28 09:38:45;;;;;;;1.10;0.40;;;28.30;81.20;;;;;;4897871;29;20316;-69
2022/06/28 09:41:27;;;;;;;2.50;0.32;;;27.90;81.00;;;;;;4897549;29;20313;-65
2022/06/28 09:43:56;;;;;;;1.13;0.40;;;27.50;83.70;;;;;;4897415;29;20246;-65
2022/06/28 09:46:26;;;;;;;0.55;0.30;;;27.40;86.30;;;;;;4897498;29;20217;-66
2022/06/28 09:48:56;;;;;;;0.95;0.40;;;27.60;81.80;;;;;;4897636;29;20257;-65
2022/06/28 09:51:24;;;;;;;1.33;0.68;;;26.70;82.20;;;;;;4897371;29;20304;-65
2022/06/28 09:53:54;;;;;;;6.53;0.85;;;26.60;81.00;;;;;;4900377;29;20305;-65
2022/06/28 09:56:23;;;;;;;3.65;0.30;;;25.90;83.80;;;;;;4901342;29;20210;-65
2022/06/28 09:58:53;;;;;;;1.88;0.43;;;25.10;85.00;;;;;;4901410;29;20210;-66
2022/06/28 10:01:20;;;;;;;2.72;0.40;;;25.20;87.40;;;;;;4900997;29;20241;-71
2022/06/28 10:03:49;;;;;;;1.10;0.30;;;25.70;85.90;;;;;;4901165;29;20242;-67
2022/06/28 10:06:17;;;;;;;1.25;0.40;;;25.60;86.30;;;;;;4901059;29;20218;-65
2022/06/28 10:08:44;;;;;;;0.50;0.32;;;26.40;87.30;;;;;;4901145;29;20573;-68
2022/06/28 10:11:11;;;;;;;0.90;0.43;;;26.80;87.90;;;;;;4901041;29;20230;-67
2022/06/28 10:16:34;;;;;;;1.38;0.30;;;26.10;87.40;;;;;;4900879;29;20206;-66
2022/06/28 10:19:03;;;;;;;2.60;0.50;;;25.50;86.40;;;;;;4900686;29;20210;-69
2022/06/28 10:21:43;;;;;;;1.00;0.40;;;25.20;87.30;;;;;;4900955;29;20226;-76
2022/06/28 10:24:10;;;;;;;1.13;0.40;;;24.70;90.50;;;;;;4900812;29;20717;-67
2022/06/28 10:26:37;;;;;;;1.52;0.45;;;24.40;90.70;;;;;;4900732;29;20649;-71
2022/06/28 10:29:05;;;;;;;1.00;0.38;;;24.30;92.20;;;;;;4901097;29;20301;-79
2022/06/28 10:31:36;;;;;;;3.28;0.65;;;24.30;91.60;;;;;;4901101;29;20720;-66
2022/06/28 10:34:07;;;;;;;1.27;0.68;;;24.20;90.70;;;;;;4900908;29;20245;-66
2022/06/28 10:36:46;;;;;;;0.73;0.40;;;24.00;91.70;;;;;;4901280;29;20210;-69
2022/06/28 10:39:16;;;;;;;0.73;0.30;;;24.00;92.20;;;;;;4900726;29;20210;-68
2022/06/28 10:41:44;;;;;;;1.45;0.40;;;23.90;92.10;;;;;;4900978;29;20241;-75
2022/06/28 10:44:13;;;;;;;1.45;0.40;;;23.90;92.40;;;;;;4900290;29;20601;-74
2022/06/28 10:46:42;;;;;;;1.65;0.60;;;23.90;92.60;;;;;;4900404;29;20221;-65
2022/06/28 10:49:11;;;;;;;1.23;0.40;;;23.80;91.40;;;;;;4900244;29;20210;-67
2022/06/28 10:52:09;;;;;;;1.52;0.50;;;24.00;92.20;;;;;;4900272;29;20309;-66
2022/06/28 10:54:36;;;;;;;1.85;0.32;;;24.20;92.30;;;;;;4893236;29;20210;-66
2022/06/28 10:57:20;;;;;;;1.52;0.50;;;24.30;92.70;;;;;;4900507;29;20210;-66
2022/06/28 10:59:49;;;;;;;0.75;0.40;;;24.50;92.70;;;;;;4899908;29;20234;-66
2022/06/28 11:02:17;;;;;;;1.70;0.47;;;24.20;91.30;;;;;;4900028;29;20241;-75
2022/06/28 11:04:45;;;;;;;1.23;0.40;;;23.60;92.30;;;;;;4899593;29;20206;-80
2022/06/28 11:07:23;;;;;;;2.55;0.50;;;23.70;93.40;;;;;;4900130;29;20206;-65
2022/06/28 11:10:10;;;;;;;0.40;0.30;;;24.10;93.60;;;;;;4899950;29;20578;-66
2022/06/28 11:12:39;;;;;;;0.77;0.30;;;24.30;93.70;;;;;;4900069;29;20236;-65
2022/06/28 11:15:08;;;;;;;1.02;0.50;;;24.40;92.50;;;;;;4899861;29;20214;-66
2022/06/28 11:17:39;;;;;;;0.75;0.40;;;24.40;92.30;;;;;;4900053;29;20217;-66
2022/06/28 11:20:08;;;;;;;1.05;0.43;;;24.50;92.50;;;;;;4899805;29;20233;-66
2022/06/28 11:22:39;;;;;;;1.05;0.40;;;24.60;92.20;;;;;;4899646;29;20301;-66
2022/06/28 11:25:08;;;;;;;1.10;0.40;;;24.70;93.40;;;;;;4899645;29;20225;-66
2022/06/28 11:27:34;;;;;;;2.28;0.45;;;24.90;92.10;;;;;;4899579;29;20300;-66
2022/06/28 11:30:07;;;;;;;3.47;0.30;;;25.10;91.90;;;;;;4899224;29;20333;-66
2022/06/28 11:32:37;;;;;;;0.57;0.40;;;25.20;91.30;;;;;;4899230;29;20206;-66
2022/06/28 11:35:06;;;;;;;2.15;0.55;;;25.20;92.70;;;;;;4899375;29;20583;-66
2022/06/28 11:37:45;;;;;;;1.17;0.50;;;25.00;93.00;;;;;;4899415;29;20680;-65
2022/06/28 11:40:12;;;;;;;1.73;0.50;;;24.90;91.90;;;;;;4899513;29;20241;-65
2022/06/28 11:42:39;;;;;;;0.70;0.40;;;25.10;91.00;;;;;;4899478;29;20707;-65
2022/06/28 11:45:07;;;;;;;1.58;0.40;;;25.00;90.60;;;;;;4899182;29;20221;-68
2022/06/28 11:47:36;;;;;;;4.32;0.85;;;24.70;91.10;;;;;;4899384;29;20217;-66
2022/06/28 11:50:13;;;;;;;2.25;0.50;;;24.70;90.80;;;;;;4899333;29;20237;-66
2022/06/28 11:52:51;;;;;;;2.53;0.45;;;24.80;91.90;;;;;;4898993;29;20210;-66
2022/06/28 11:55:20;;;;;;;1.50;0.40;;;24.90;92.30;;;;;;4899231;29;20222;-68
2022/06/28 11:58:07;;;;;;;0.90;0.40;;;25.00;90.90;;;;;;4898761;29;20669;-68
2022/06/28 12:00:34;;;;;;;0.68;0.50;;;25.00;91.50;;;;;;4898628;29;20265;-70
2022/06/28 12:03:06;;;;;;;0.60;0.40;;;25.30;91.40;;;;;;4898568;29;20238;-66
2022/06/28 12:05:35;;;;;;;2.05;0.38;;;25.30;90.60;;;;;;4899089;29;20297;-68
2022/06/28 12:08:04;;;;;;;3.22;0.75;;;24.90;90.30;;;;;;4898948;29;20224;-67
2022/06/28 12:10:32;;;;;;;0.65;0.40;;;24.50;90.70;;;;;;4899095;29;20230;-74
2022/06/28 12:13:11;;;;;;;0.43;0.38;;;24.40;90.80;;;;;;4898834;29;20310;-65
2022/06/28 12:15:38;;;;;;;0.90;0.40;;;24.80;91.10;;;;;;4897529;29;20306;-65
2022/06/28 12:18:09;;;;;;;2.30;0.45;;;25.20;90.40;;;;;;4898700;29;20217;-66
2022/06/28 12:20:36;;;;;;;2.50;0.50;;;25.30;90.30;;;;;;4899123;29;20240;-65
2022/06/28 12:23:05;;;;;;;0.65;0.45;;;25.30;89.70;;;;;;4898653;29;20749;-74
2022/06/28 12:25:32;;;;;;;0.93;0.52;;;25.50;90.40;;;;;;4898620;29;20214;-65
2022/06/28 12:28:00;;;;;;;1.80;0.63;;;25.30;90.10;;;;;;4898413;29;20214;-67
2022/06/28 12:30:26;;;;;;;2.15;0.47;;;25.00;90.00;;;;;;4898094;29;20237;-65
2022/06/28 12:32:55;;;;;;;1.08;0.40;;;24.80;87.60;;;;;;4898533;29;20216;-65
2022/06/28 12:35:24;;;;;;;1.20;0.50;;;24.60;90.70;;;;;;4898367;29;20237;-65
2022/06/28 12:37:52;;;;;;;0.50;0.30;;;24.60;89.00;;;;;;4898448;29;20214;-65
2022/06/28 12:40:21;;;;;;;0.70;0.40;;;24.70;88.80;;;;;;4898307;29;20234;-66
2022/06/28 12:42:48;;;;;;;0.45;0.38;;;24.70;90.20;;;;;;4898324;29;20210;-64
2022/06/28 12:45:15;;;;;;;0.52;0.35;;;25.10;91.80;;;;;;4897725;29;20530;-65
2022/06/28 12:47:42;;;;;;;0.30;0.30;;;25.50;90.20;;;;;;4897790;29;20218;-64
2022/06/28 12:50:13;;;;;;;0.95;0.40;;;25.80;90.60;;;;;;4898061;29;20234;-65
2022/06/28 12:52:42;;;;;;;2.42;0.55;;;25.80;88.10;;;;;;4897898;29;20760;-65
2022/06/28 12:55:11;;;;;;;1.90;0.60;;;26.20;89.70;;;;;;4897906;29;20214;-64
2022/06/28 12:57:38;;;;;;;2.15;0.40;;;26.40;88.00;;;;;;4897801;29;20293;-64
2022/06/28 13:00:08;;;;;;;1.50;0.57;;;26.30;87.40;;;;;;4897571;29;20234;-65
2022/06/28 13:02:35;;;;;;;0.95;0.47;;;26.30;87.60;;;;;;4898052;29;20217;-64
2022/06/28 13:05:01;;;;;;;0.85;0.40;;;26.00;89.10;;;;;;4897773;29;20234;-69
2022/06/28 13:07:28;;;;;;;1.08;0.40;;;26.00;90.10;;;;;;4897734;29;20210;-65
2022/06/28 13:09:56;;;;;;;1.20;0.40;;;25.50;89.70;;;;;;4897896;29;20236;-67
2022/06/28 13:12:24;;;;;;;3.33;0.55;;;25.50;88.80;;;;;;4898118;29;20292;-74
2022/06/28 13:14:50;;;;;;;1.65;0.40;;;25.50;90.20;;;;;;4898079;29;20217;-66
2022/06/28 13:17:17;;;;;;;0.45;0.40;;;25.70;89.30;;;;;;4898068;29;20218;-69
2022/06/28 13:19:44;;;;;;;0.70;0.45;;;25.80;89.70;;;;;;4897691;29;20238;-66
2022/06/28 13:22:11;;;;;;;1.30;0.50;;;26.00;87.20;;;;;;4897872;29;20614;-65
2022/06/28 13:24:38;;;;;;;0.98;0.40;;;25.90;89.40;;;;;;4897989;29;20244;-67
2022/06/28 13:27:07;;;;;;;0.82;0.47;;;25.60;89.70;;;;;;4899811;29;20375;-66
2022/06/28 13:29:34;;;;;;;2.28;0.50;;;25.40;88.80;;;;;;4901431;29;20312;-66
2022/06/28 13:32:00;;;;;;;1.88;0.40;;;25.20;89.60;;;;;;4901618;29;20210;-67
2022/06/28 13:34:29;;;;;;;0.40;0.35;;;25.40;90.30;;;;;;4901477;29;20680;-72
2022/06/28 13:36:56;;;;;;;0.52;0.40;;;25.50;90.10;;;;;;4901338;29;20210;-65
2022/06/28 13:39:23;;;;;;;1.65;0.50;;;25.50;90.40;;;;;;4902112;29;20300;-65
2022/06/28 13:41:50;;;;;;;1.48;0.47;;;25.20;90.80;;;;;;4901597;29;20217;-66
2022/06/28 13:44:18;;;;;;;0.80;0.50;;;24.90;90.80;;;;;;4901514;29;20238;-75
2022/06/28 13:46:46;;;;;;;1.05;0.47;;;24.90;91.30;;;;;;4901466;29;20220;-65
2022/06/28 13:49:13;;;;;;;1.00;0.50;;;24.90;90.90;;;;;;4901256;29;20773;-65
2022/06/28 13:51:40;;;;;;;1.42;0.70;;;25.00;91.20;;;;;;4901616;29;20215;-69
2022/06/28 13:54:07;;;;;;;1.02;0.40;;;25.30;90.50;;;;;;4901385;29;20214;-65
2022/06/28 13:56:34;;;;;;;0.90;0.40;;;25.60;90.30;;;;;;4901478;29;20215;-65
2022/06/28 13:59:01;;;;;;;0.73;0.50;;;25.50;91.00;;;;;;4901043;29;20257;-65
2022/06/28 14:01:29;;;;;;;1.33;0.60;;;25.20;91.10;;;;;;4900688;29;20245;-66
2022/06/28 14:03:56;;;;;;;1.60;0.38;;;25.20;91.80;;;;;;4900863;29;20731;-66
2022/06/28 14:06:23;;;;;;;2.13;0.55;;;25.00;92.10;;;;;;4901156;29;20217;-73
2022/06/28 14:08:50;;;;;;;1.45;0.60;;;25.30;92.10;;;;;;4900986;29;20210;-65
2022/06/28 14:11:17;;;;;;;2.20;0.57;;;25.20;90.60;;;;;;4900978;29;20306;-70
2022/06/28 14:13:44;;;;;;;2.03;0.50;;;25.30;91.00;;;;;;4900740;29;20301;-65
2022/06/28 14:16:11;;;;;;;1.92;0.47;;;25.40;91.60;;;;;;4900517;29;20213;-66
2022/06/28 14:18:39;;;;;;;3.00;0.50;;;25.20;91.60;;;;;;4900854;29;20217;-66
2022/06/28 14:21:06;;;;;;;1.13;0.50;;;25.10;91.20;;;;;;4900617;29;20234;-66
2022/06/28 14:23:33;;;;;;;0.80;0.40;;;24.70;91.40;;;;;;4900593;29;20305;-66
2022/06/28 14:26:00;;;;;;;0.40;0.40;;;24.70;92.00;;;;;;4900654;29;20210;-64
2022/06/28 14:28:26;;;;;;;0.68;0.40;;;24.90;92.20;;;;;;4900746;29;20217;-66
2022/06/28 14:30:53;;;;;;;1.35;0.40;;;24.80;92.10;;;;;;4900488;29;20230;-65
2022/06/28 14:33:20;;;;;;;1.48;0.40;;;24.80;91.60;;;;;;4900796;29;20261;-66
2022/06/28 14:35:48;;;;;;;0.40;0.40;;;25.00;92.40;;;;;;4900589;29;20217;-73
2022/06/28 14:38:16;;;;;;;1.00;0.40;;;25.20;91.60;;;;;;4899261;29;20309;-69
2022/06/28 14:40:43;;;;;;;0.55;0.40;;;25.50;93.20;;;;;;4900119;29;20732;-65
2022/06/28 14:43:10;;;;;;;0.85;0.38;;;25.70;91.40;;;;;;4900418;29;20689;-74
2022/06/28 14:45:40;;;;;;;1.83;0.68;;;25.70;90.90;;;;;;4900111;29;20237;-66
2022/06/28 14:48:09;;;;;;;1.15;0.40;;;25.60;91.00;;;;;;4900454;29;20211;-66
2022/06/28 14:50:36;;;;;;;0.90;0.40;;;25.50;90.80;;;;;;4900413;29;20332;-65
2022/06/28 14:53:09;;;;;;;1.35;0.63;;;25.30;92.00;;;;;;4900206;29;20211;-71
2022/06/28 14:55:36;;;;;;;0.70;0.38;;;25.30;91.30;;;;;;4900273;29;20569;-68
2022/06/28 14:58:04;;;;;;;0.90;0.45;;;25.50;91.60;;;;;;4900074;29;20218;-69
2022/06/28 15:00:31;;;;;;;0.43;0.40;;;25.40;91.60;;;;;;4900061;29;20226;-75
2022/06/28 15:02:58;;;;;;;0.65;0.40;;;25.40;91.80;;;;;;4900288;29;20210;-66
2022/06/28 15:05:24;;;;;;;0.70;0.30;;;25.50;91.10;;;;;;4900181;29;20242;-71
2022/06/28 15:07:51;;;;;;;1.48;0.40;;;25.50;91.40;;;;;;4900041;29;20297;-66
2022/06/28 15:10:19;;;;;;;0.85;0.50;;;25.50;91.70;;;;;;4899809;29;20732;-68
2022/06/28 15:12:46;;;;;;;1.20;0.30;;;25.40;90.80;;;;;;4899669;29;20232;-70
2022/06/28 15:15:13;;;;;;;1.20;0.63;;;25.30;91.20;;;;;;4899816;29;20214;-66
2022/06/28 15:17:40;;;;;;;1.98;0.50;;;24.90;90.60;;;;;;4899835;29;20214;-65
2022/06/28 15:20:07;;;;;;;0.82;0.50;;;24.70;91.00;;;;;;4899496;29;20648;-75
2022/06/28 15:30:54;;;;;;;3.35;0.40;;;25.20;90.80;;;;;;4899334;29;20257;-68
2022/06/28 15:33:23;;;;;;;0.50;0.40;;;25.20;90.40;;;;;;4899310;29;20222;-67
2022/06/28 15:35:51;;;;;;;1.63;0.40;;;25.40;90.80;;;;;;4899143;29;20300;-67
2022/06/28 15:38:19;;;;;;;0.82;0.50;;;25.60;90.40;;;;;;4899342;29;20673;-67
2022/06/28 15:40:47;;;;;;;2.28;0.50;;;25.70;90.50;;;;;;4900311;29;20233;-66
2022/06/28 15:43:16;;;;;;;0.60;0.50;;;25.80;90.90;;;;;;4899376;29;20210;-66
2022/06/28 15:45:43;;;;;;;1.65;0.50;;;25.80;91.10;;;;;;4898874;29;20325;-66
2022/06/28 15:48:11;;;;;;;0.70;0.43;;;25.80;91.80;;;;;;4899178;29;20270;-70
2022/06/28 15:50:37;;;;;;;1.27;0.40;;;25.50;91.60;;;;;;4899051;29;20581;-67
2022/06/28 15:53:05;;;;;;;2.38;0.57;;;25.50;92.20;;;;;;4899336;29;20237;-65
2022/06/28 15:55:32;;;;;;;0.55;0.30;;;25.70;92.60;;;;;;4899394;29;20574;-68
2022/06/28 15:58:01;;;;;;;0.47;0.35;;;25.90;92.80;;;;;;4898937;29;20213;-76
2022/06/28 16:00:28;;;;;;;1.38;0.43;;;25.80;90.80;;;;;;4898854;29;20316;-73
2022/06/28 16:02:55;;;;;;;0.63;0.40;;;25.60;91.00;;;;;;4899184;29;20313;-66
2022/06/28 16:05:23;;;;;;;0.82;0.40;;;25.50;91.50;;;;;;4899164;29;20244;-68
2022/06/28 16:07:50;;;;;;;2.45;0.50;;;25.60;92.30;;;;;;4899053;29;20578;-67
2022/06/28 16:10:17;;;;;;;2.97;0.45;;;25.60;91.40;;;;;;4900928;29;20317;-67
2022/06/28 16:12:54;;;;;;;1.02;0.50;;;25.70;91.80;;;;;;4899170;29;20214;-68
2022/06/28 16:15:25;;;;;;;2.00;0.50;;;25.70;90.90;;;;;;4899214;29;20277;-69
2022/06/28 16:17:53;;;;;;;1.45;0.40;;;25.80;90.80;;;;;;4898857;29;20207;-69
2022/06/28 16:20:20;;;;;;;0.55;0.50;;;25.60;90.50;;;;;;4898840;29;20241;-68
2022/06/28 16:22:48;;;;;;;0.98;0.60;;;25.30;91.20;;;;;;4899070;29;20221;-65
2022/06/28 16:25:17;;;;;;;0.40;0.35;;;25.10;91.50;;;;;;4899070;29;20242;-72
2022/06/28 16:27:45;;;;;;;1.52;0.85;;;25.10;90.90;;;;;;4898950;29;20210;-68
2022/06/28 16:30:13;;;;;;;1.20;0.60;;;25.00;91.10;;;;;;4898804;29;20242;-67
2022/06/28 16:32:42;;;;;;;1.05;0.60;;;25.10;91.60;;;;;;4899327;29;20879;-72
2022/06/28 16:35:12;;;;;;;1.15;0.50;;;25.20;91.50;;;;;;4899178;29;20214;-69
2022/06/28 16:37:39;;;;;;;1.98;0.50;;;25.30;92.20;;;;;;4898597;29;20222;-80
2022/06/28 16:40:07;;;;;;;1.00;0.30;;;25.30;92.70;;;;;;4898589;29;20234;-65
2022/06/28 16:42:34;;;;;;;1.33;0.50;;;25.40;93.10;;;;;;4898392;29;20666;-66
2022/06/28 16:45:00;;;;;;;1.08;0.40;;;25.40;92.60;;;;;;4899082;29;20268;-71
2022/06/28 16:47:27;;;;;;;1.30;0.50;;;25.40;92.40;;;;;;4898399;29;20240;-65
2022/06/28 16:49:56;;;;;;;1.40;0.50;;;25.40;92.30;;;;;;4897882;29;20564;-67
2022/06/28 16:52:22;;;;;;;0.80;0.45;;;25.40;92.10;;;;;;4898509;29;20210;-67
2022/06/28 16:54:49;;;;;;;0.90;0.47;;;25.20;91.90;;;;;;4897877;29;20214;-66
2022/06/28 16:57:16;;;;;;;1.55;0.50;;;25.20;92.40;;;;;;4897835;29;20216;-69
2022/06/28 16:59:43;;;;;;;1.08;0.50;;;25.20;92.50;;;;;;4891880;29;20266;-65
2022/06/28 17:02:11;;;;;;;0.70;0.40;;;25.40;92.90;;;;;;4897126;29;20211;-69
2022/06/28 17:04:38;;;;;;;1.15;0.50;;;25.50;92.60;;;;;;4897643;29;20325;-65
2022/06/28 17:07:23;;;;;;;4.30;0.60;;;25.60;91.90;;;;;;4897178;29;20210;-67
2022/06/28 17:09:51;;;;;;;1.27;0.50;;;25.80;91.90;;;;;;4897599;29;20253;-64
2022/06/28 17:12:18;;;;;;;1.23;0.60;;;25.60;91.50;;;;;;4897739;29;20545;-64
2022/06/28 17:14:45;;;;;;;1.40;0.70;;;25.30;91.70;;;;;;4897292;29;20786;-71
2022/06/28 17:17:12;;;;;;;0.90;0.60;;;25.20;91.70;;;;;;4897566;29;20214;-65
2022/06/28 17:19:39;;;;;;;0.90;0.40;;;25.30;92.40;;;;;;4904936;29;20229;-79
2022/06/28 17:22:07;;;;;;;0.98;0.60;;;25.40;92.50;;;;;;4916866;29;20206;-67
2022/06/28 17:24:34;;;;;;;0.50;0.40;;;25.20;92.30;;;;;;4916608;29;20269;-74
2022/06/28 17:27:01;;;;;;;1.48;0.40;;;25.00;92.80;;;;;;4916665;29;20300;-66
2022/06/28 17:29:27;;;;;;;0.70;0.68;;;24.80;93.30;;;;;;4916512;29;20213;-65
2022/06/28 17:31:54;;;;;;;0.80;0.55;;;24.70;93.90;;;;;;4916811;29;20220;-68
2022/06/28 17:34:21;;;;;;;1.73;0.63;;;24.80;93.70;;;;;;4916502;29;20212;-68
2022/06/28 17:36:48;;;;;;;0.88;0.60;;;24.50;94.00;;;;;;4916761;29;20209;-65
2022/06/28 17:39:19;;;;;;;2.30;0.60;;;24.40;94.50;;;;;;4916395;29;20220;-65
2022/06/28 17:41:46;;;;;;;2.00;0.75;;;24.30;94.90;;;;;;4916523;29;20210;-65
2022/06/28 17:44:14;;;;;;;1.90;0.50;;;24.40;95.60;;;;;;4916564;29;20308;-68
2022/06/28 17:46:40;;;;;;;1.95;0.65;;;24.20;95.00;;;;;;4916399;29;20333;-66
2022/06/28 17:49:07;;;;;;;0.90;0.65;;;24.20;95.50;;;;;;4917358;29;20351;-65
2022/06/28 17:51:35;;;;;;;2.08;0.63;;;24.20;95.80;;;;;;4916781;29;20233;-69
2022/06/28 17:54:01;;;;;;;0.77;0.40;;;24.20;95.60;;;;;;4916409;29;20205;-66
2022/06/28 17:56:30;;;;;;;2.30;0.60;;;24.40;95.40;;;;;;4916461;29;20568;-65
2022/06/28 17:58:57;;;;;;;0.60;0.50;;;24.30;94.90;;;;;;4916721;29;20206;-65
2022/06/28 18:01:23;;;;;;;1.27;0.55;;;24.40;95.50;;;;;;4916484;29;20236;-69
2022/06/28 18:03:50;;;;;;;0.55;0.40;;;24.40;95.00;;;;;;4916436;29;20216;-68
2022/06/28 18:06:17;;;;;;;0.98;0.40;;;24.30;95.10;;;;;;4916455;29;20276;-65
2022/06/28 18:08:44;;;;;;;0.82;0.60;;;24.20;95.00;;;;;;4901932;29;20213;-75
2022/06/28 18:11:11;;;;;;;2.03;0.70;;;24.10;95.50;;;;;;4897081;29;20706;-73
2022/06/28 18:13:39;;;;;;;1.08;0.50;;;24.10;95.90;;;;;;4898250;29;20240;-69
2022/06/28 18:16:06;;;;;;;1.48;0.68;;;24.10;95.50;;;;;;4900218;29;20302;-68
2022/06/28 18:18:33;;;;;;;1.58;0.70;;;24.10;95.80;;;;;;4900704;29;20573;-66
2022/06/28 18:21:00;;;;;;;1.05;0.57;;;24.20;95.90;;;;;;4900554;29;20230;-70
2022/06/28 18:23:27;;;;;;;0.63;0.40;;;24.20;95.60;;;;;;4900923;29;20220;-77
2022/06/28 18:25:54;;;;;;;0.60;0.50;;;24.00;96.00;;;;;;4894514;29;20246;-75
2022/06/28 18:28:21;;;;;;;0.73;0.60;;;24.00;96.00;;;;;;4905214;29;20801;-65
2022/06/28 18:30:49;;;;;;;0.90;0.50;;;24.00;96.00;;;;;;4917793;29;20229;-70
2022/06/28 18:33:16;;;;;;;1.73;0.50;;;24.00;96.00;;;;;;4917493;29;20261;-67
2022/06/28 18:35:43;;;;;;;0.45;0.30;;;24.20;96.20;;;;;;4910234;29;20221;-69
2022/06/28 18:38:10;;;;;;;2.60;0.47;;;24.20;96.40;;;;;;4899597;29;20207;-73
2022/06/28 18:40:37;;;;;;;1.73;0.60;;;24.00;96.50;;;;;;4898938;29;20234;-70
2022/06/28 18:43:04;;;;;;;0.95;0.55;;;24.00;97.30;;;;;;4900637;29;20206;-67
2022/06/28 18:45:31;;;;;;;0.50;0.40;;;23.90;96.30;;;;;;4900185;29;20234;-67
2022/06/28 18:47:59;;;;;;;0.55;0.40;;;23.80;96.90;;;;;;4900709;29;20217;-68
2022/06/28 18:50:26;;;;;;;1.30;0.60;;;23.80;97.20;;;;;;4900323;29;20598;-67
2022/06/28 18:52:53;;;;;;;1.60;0.50;;;23.80;97.70;;;;;;4900555;29;20213;-78
2022/06/28 18:55:20;;;;;;;1.42;0.50;;;23.70;97.10;;;;;;4900340;29;20309;-66
2022/06/28 18:57:47;;;;;;;1.52;0.50;;;23.70;98.10;;;;;;4900355;29;20221;-75
2022/06/28 19:00:14;;;;;;;0.80;0.43;;;23.60;97.90;;;;;;4899769;29;20282;-67
2022/06/28 19:02:41;;;;;;;1.58;0.50;;;23.50;98.10;;;;;;4900083;29;20258;-66
2022/06/28 19:05:10;;;;;;;0.57;0.47;;;23.30;98.40;;;;;;4900251;29;20717;-68
2022/06/28 19:07:38;;;;;;;1.48;0.50;;;23.20;98.60;;;;;;4900029;29;20210;-66
2022/06/28 19:10:06;;;;;;;0.70;0.40;;;23.20;99.30;;;;;;4900250;29;20620;-66
2022/06/28 19:12:33;;;;;;;0.73;0.43;;;23.20;99.40;;;;;;4899953;29;20301;-67
2022/06/28 19:15:00;;;;;;;1.17;0.93;;;23.30;99.90;;;;;;4899919;29;20210;-67
2022/06/28 19:17:27;;;;;;;1.25;0.50;;;23.30;99.90;;;;;;4899836;29;20221;-69
2022/06/28 19:19:54;;;;;;;0.60;0.50;;;23.20;99.90;;;;;;4899516;29;20237;-67
2022/06/28 19:22:22;;;;;;;1.25;0.73;;;23.10;99.90;;;;;;4899851;29;20212;-68
2022/06/28 19:24:49;;;;;;;0.68;0.50;;;23.00;99.90;;;;;;4899253;29;20593;-66
2022/06/28 19:27:16;;;;;;;4.80;1.27;;;23.00;99.90;;;;;;4899695;29;20674;-66
2022/06/28 19:29:43;;;;;;;1.08;0.70;;;22.90;99.90;;;;;;4899523;29;20226;-67
2022/06/28 19:32:10;;;;;;;2.25;0.60;;;22.80;99.90;;;;;;4899711;29;20238;-69
2022/06/28 19:34:37;;;;;;;0.63;0.45;;;22.70;99.90;;;;;;4899646;29;20250;-67
2022/06/28 19:37:05;;;;;;;0.93;0.52;;;22.60;99.90;;;;;;4899519;29;20212;-67
2022/06/28 19:39:33;;;;;;;0.82;0.40;;;22.50;99.90;;;;;;4900231;29;20213;-67
2022/06/28 19:42:00;;;;;;;0.88;0.50;;;22.50;99.90;;;;;;4899667;29;20213;-66
2022/06/28 19:44:27;;;;;;;1.20;0.50;;;22.40;99.90;;;;;;4899240;29;20225;-67
2022/06/28 19:46:54;;;;;;;0.70;0.60;;;22.30;99.90;;;;;;4899210;29;20246;-71
2022/06/28 19:49:22;;;;;;;1.13;0.47;;;22.20;99.90;;;;;;4899107;29;20211;-67
2022/06/28 19:51:48;;;;;;;1.02;0.57;;;22.10;99.90;;;;;;4899307;29;20662;-66
2022/06/28 19:54:15;;;;;;;0.70;0.55;;;22.10;99.90;;;;;;4899650;29;20558;-66
2022/06/28 19:56:43;;;;;;;1.20;0.60;;;21.90;99.90;;;;;;4899318;29;20218;-68
2022/06/28 19:59:10;;;;;;;1.67;0.55;;;21.90;99.90;;;;;;4899169;29;20206;-67
2022/06/28 20:01:37;;;;;;;0.88;0.70;;;21.70;99.90;;;;;;4898764;29;20242;-67
2022/06/28 20:04:04;;;;;;;0.80;0.55;;;21.50;99.90;;;;;;4898963;29;20213;-72
2022/06/28 20:06:31;;;;;;;0.90;0.55;;;21.40;99.90;;;;;;4899191;29;20234;-67
2022/06/28 20:08:58;;;;;;;4.32;0.90;;;21.40;99.90;;;;;;4898968;29;20577;-69
2022/06/28 20:11:25;;;;;;;1.25;0.60;;;21.30;99.90;;;;;;4898932;29;20256;-71
2022/06/28 20:13:53;;;;;;;1.15;0.60;;;21.20;99.90;;;;;;4898573;29;20222;-77
2022/06/28 20:16:21;;;;;;;1.73;0.60;;;21.20;99.90;;;;;;4898526;29;20297;-77
2022/06/28 20:18:48;;;;;;;0.90;0.60;;;21.10;99.90;;;;;;4898906;29;20645;-73
2022/06/28 20:21:15;;;;;;;0.82;0.68;;;21.10;99.90;;;;;;4899079;29;20639;-78
2022/06/28 20:23:42;;;;;;;2.90;0.70;;;20.90;99.90;;;;;;4898757;29;20214;-71
2022/06/28 20:26:08;;;;;;;1.25;0.55;;;20.80;99.90;;;;;;4898380;29;20706;-66
2022/06/28 20:28:35;;;;;;;1.80;0.52;;;20.60;99.90;;;;;;4898493;29;20654;-66
2022/06/28 20:31:04;;;;;;;1.17;0.60;;;20.50;99.90;;;;;;4898461;29;20639;-74
2022/06/28 20:33:37;;;;;;;1.08;0.70;;;20.50;99.90;;;;;;4898530;29;20213;-72
2022/06/28 20:36:04;;;;;;;2.92;0.90;;;20.50;99.90;;;;;;4898057;29;20274;-71
2022/06/28 20:38:31;;;;;;;0.77;0.63;;;20.40;99.90;;;;;;4898740;29;20206;-77
2022/06/28 20:43:42;;;;;;;2.47;1.25;;;20.20;99.90;;;;;;4898686;29;20270;-66
2022/06/28 20:46:12;;;;;;;1.77;1.20;;;20.10;99.90;;;;;;4900483;29;20609;-74
2022/06/28 20:48:39;;;;;;;1.52;1.23;;;20.00;99.90;;;;;;4898725;29;20218;-67
2022/06/28 20:51:06;;;;;;;3.67;1.88;;;20.00;99.90;;;;;;4900155;29;20318;-75
2022/06/28 20:53:33;;;;;;;3.92;2.00;;;19.90;99.90;;;;;;4898240;29;20293;-69